Time,TemperatureF,DewpointF,PressureIn,WindDirection,WindDirectionDegrees,WindSpeedMPH,WindSpeedGustMPH,Humidity,HourlyPrecipIn,Conditions,Clouds,dailyrainin,SoftwareType,DateUTC
2013-07-04 00:34:00,64.0,63.0,29.84,WNW,290,1.0,-999.0,97,0.00,,,-99.99,,2013-07-04 07:34:00,
2013-07-04 00:43:00,64.0,63.0,29.84,WNW,290,1.0,-999.0,97,0.00,,,-99.99,,2013-07-04 07:43:00,
2013-07-04 00:52:00,64.0,63.0,29.84,WNW,290,1.0,-999.0,97,0.00,,,-99.99,,2013-07-04 07:52:00,
2013-07-04 01:33:00,64.0,63.0,29.84,North,0,0.0,-999.0,96,0.00,,,-99.99,,2013-07-04 08:33:00,
2013-07-04 01:42:00,64.0,63.0,29.84,North,0,0.0,-999.0,96,0.00,,,-99.99,,2013-07-04 08:42:00,
2013-07-04 01:52:00,64.0,63.0,29.84,North,0,0.0,-999.0,96,0.00,,,-99.99,,2013-07-04 08:52:00,
2013-07-04 02:32:00,64.0,63.0,29.84,WNW,290,2.0,-999.0,97,0.00,,,-99.99,,2013-07-04 09:32:00,
2013-07-04 02:42:00,64.0,63.0,29.84,WNW,290,2.0,-999.0,97,0.00,,,-99.99,,2013-07-04 09:42:00,
2013-07-04 02:52:00,64.0,63.0,29.84,WNW,290,2.0,-999.0,97,0.00,,,-99.99,,2013-07-04 09:52:00,
2013-07-04 03:33:00,64.0,63.0,29.82,North,0,0.0,-999.0,97,0.00,,,-99.99,,2013-07-04 10:33:00,
2013-07-04 03:42:00,64.0,63.0,29.82,North,0,0.0,-999.0,97,0.00,,,-99.99,,2013-07-04 10:42:00,
2013-07-04 03:53:00,64.0,63.0,29.82,North,0,0.0,-999.0,97,0.00,,,-99.99,,2013-07-04 10:53:00,
2013-07-04 04:33:00,63.0,62.0,29.80,North,0,0.0,-999.0,97,0.00,,,-99.99,,2013-07-04 11:33:00,
2013-07-04 04:43:00,63.0,62.0,29.80,North,0,0.0,-999.0,97,0.00,,,-99.99,,2013-07-04 11:43:00,
2013-07-04 04:53:00,63.0,62.0,29.80,North,0,0.0,-999.0,97,0.00,,,-99.99,,2013-07-04 11:53:00,
2013-07-04 05:43:00,63.0,62.0,29.80,North,0,0.0,-999.0,98,0.00,,,-99.99,,2013-07-04 12:43:00,
2013-07-04 05:52:00,63.0,62.0,29.80,North,0,0.0,-999.0,98,0.00,,,-99.99,,2013-07-04 12:52:00,
2013-07-04 06:33:00,63.0,62.0,29.81,North,0,0.0,-999.0,98,0.00,,,-99.99,,2013-07-04 13:33:00,
2013-07-04 06:43:00,63.0,62.0,29.81,North,0,0.0,-999.0,98,0.00,,,-99.99,,2013-07-04 13:43:00,
2013-07-04 06:53:00,63.0,62.0,29.81,North,0,0.0,-999.0,98,0.00,,,-99.99,,2013-07-04 13:53:00,
2013-07-04 07:43:00,63.0,62.0,29.81,North,0,0.0,-999.0,98,0.00,,,-99.99,,2013-07-04 14:43:00,
2013-07-04 07:53:00,63.0,62.0,29.81,North,0,0.0,-999.0,98,0.00,,,-99.99,,2013-07-04 14:53:00,
2013-07-04 08:33:00,63.0,62.0,29.82,East,100,1.0,-999.0,98,0.00,,,-99.99,,2013-07-04 15:33:00,
2013-07-04 08:43:00,63.0,62.0,29.82,East,100,1.0,-999.0,98,0.00,,,-99.99,,2013-07-04 15:43:00,
2013-07-04 08:52:00,63.0,62.0,29.82,East,100,1.0,-999.0,98,0.00,,,-99.99,,2013-07-04 15:52:00,
2013-07-04 09:33:00,65.0,64.0,29.83,North,0,0.0,-999.0,97,0.00,,,-99.99,,2013-07-04 16:33:00,
2013-07-04 09:42:00,65.0,64.0,29.83,North,0,0.0,-999.0,97,0.00,,,-99.99,,2013-07-04 16:42:00,
2013-07-04 09:52:00,65.0,64.0,29.83,North,0,0.0,-999.0,97,0.00,,,-99.99,,2013-07-04 16:52:00,
2013-07-04 10:33:00,67.0,65.0,29.83,North,0,0.0,-999.0,92,0.00,,,-99.99,,2013-07-04 17:33:00,
2013-07-04 10:43:00,67.0,65.0,29.83,North,0,0.0,-999.0,92,0.00,,,-99.99,,2013-07-04 17:43:00,
2013-07-04 10:53:00,67.0,65.0,29.83,North,0,0.0,-999.0,92,0.00,,,-99.99,,2013-07-04 17:53:00,
2013-07-04 11:33:00,69.0,64.0,29.83,SE,130,1.0,-999.0,84,0.00,,,-99.99,,2013-07-04 18:33:00,
2013-07-04 11:43:00,69.0,64.0,29.83,SE,130,1.0,-999.0,84,0.00,,,-99.99,,2013-07-04 18:43:00,
2013-07-04 11:52:00,69.0,64.0,29.83,SE,130,1.0,-999.0,84,0.00,,,-99.99,,2013-07-04 18:52:00,
2013-07-04 12:33:00,72.0,65.0,29.83,East,100,4.0,-999.0,80,0.00,,,-99.99,,2013-07-04 19:33:00,
2013-07-04 12:43:00,72.0,65.0,29.83,East,100,4.0,-999.0,80,0.00,,,-99.99,,2013-07-04 19:43:00,
2013-07-04 12:53:00,72.0,65.0,29.83,East,100,4.0,-999.0,80,0.00,,,-99.99,,2013-07-04 19:53:00,
2013-07-04 13:33:00,71.0,64.0,29.81,SSW,210,4.0,-999.0,79,0.00,,,-99.99,,2013-07-04 20:33:00,
2013-07-04 13:42:00,71.0,64.0,29.81,SSW,210,4.0,-999.0,79,0.00,,,-99.99,,2013-07-04 20:42:00,
2013-07-04 13:53:00,71.0,64.0,29.81,SSW,210,4.0,-999.0,79,0.00,,,-99.99,,2013-07-04 20:53:00,
2013-07-04 14:32:00,73.0,66.0,29.80,NW,310,2.0,-999.0,78,0.00,,,-99.99,,2013-07-04 21:32:00,
2013-07-04 14:42:00,73.0,66.0,29.80,NW,310,2.0,-999.0,78,0.00,,,-99.99,,2013-07-04 21:42:00,
2013-07-04 14:52:00,73.0,66.0,29.80,NW,310,2.0,-999.0,78,0.00,,,-99.99,,2013-07-04 21:52:00,
2013-07-04 15:33:00,72.0,66.0,29.79,SSW,210,3.0,-999.0,81,0.00,,,-99.99,,2013-07-04 22:33:00,
2013-07-04 15:43:00,72.0,66.0,29.79,SSW,210,3.0,-999.0,81,0.00,,,-99.99,,2013-07-04 22:43:00,
2013-07-04 15:52:00,72.0,66.0,29.79,SSW,210,3.0,-999.0,81,0.00,,,-99.99,,2013-07-04 22:52:00,
2013-07-04 16:33:00,72.0,65.0,29.77,ENE,70,2.0,-999.0,79,0.00,,,-99.99,,2013-07-04 23:33:00,
2013-07-04 16:42:00,72.0,65.0,29.77,ENE,70,2.0,-999.0,79,0.00,,,-99.99,,2013-07-04 23:42:00,
2013-07-04 16:52:00,72.0,65.0,29.77,ENE,70,2.0,-999.0,79,0.00,,,-99.99,,2013-07-04 23:52:00,
2013-07-04 17:32:00,73.0,66.0,29.77,WNW,290,2.0,-999.0,78,0.00,,,-99.99,,2013-07-05 00:32:00,
2013-07-04 17:43:00,73.0,66.0,29.77,WNW,290,2.0,-999.0,78,0.00,,,-99.99,,2013-07-05 00:43:00,
2013-07-04 17:52:00,73.0,66.0,29.77,WNW,290,2.0,-999.0,78,0.00,,,-99.99,,2013-07-05 00:52:00,
2013-07-04 18:32:00,69.0,64.0,29.77,SSE,150,6.0,-999.0,85,0.00,,,-99.99,,2013-07-05 01:32:00,
2013-07-04 18:42:00,69.0,64.0,29.77,SSE,150,6.0,-999.0,85,0.00,,,-99.99,,2013-07-05 01:42:00,
2013-07-04 18:52:00,69.0,64.0,29.77,SSE,150,6.0,-999.0,85,0.00,,,-99.99,,2013-07-05 01:52:00,
2013-07-04 19:32:00,66.0,63.0,29.79,WSW,240,3.0,-999.0,90,0.00,,,-99.99,,2013-07-05 02:32:00,
2013-07-04 19:42:00,66.0,63.0,29.79,WSW,240,3.0,-999.0,90,0.00,,,-99.99,,2013-07-05 02:42:00,
2013-07-04 19:52:00,66.0,63.0,29.79,WSW,240,3.0,-999.0,90,0.00,,,-99.99,,2013-07-05 02:52:00,
2013-07-04 20:32:00,65.0,62.0,29.81,SSE,150,3.0,-999.0,91,0.00,,,-99.99,,2013-07-05 03:32:00,
2013-07-04 20:42:00,65.0,62.0,29.81,SSE,150,3.0,-999.0,91,0.00,,,-99.99,,2013-07-05 03:42:00,
2013-07-04 20:51:00,65.0,62.0,29.81,SSE,150,3.0,-999.0,91,0.00,,,-99.99,,2013-07-05 03:51:00,
2013-07-04 21:33:00,65.0,62.0,29.82,North,0,0.0,-999.0,91,0.00,,,-99.99,,2013-07-05 04:33:00,
2013-07-04 21:43:00,65.0,62.0,29.82,North,0,0.0,-999.0,91,0.00,,,-99.99,,2013-07-05 04:43:00,
2013-07-04 21:53:00,65.0,62.0,29.82,North,0,0.0,-999.0,91,0.00,,,-99.99,,2013-07-05 04:53:00,
2013-07-04 22:33:00,65.0,62.0,29.83,South,170,2.0,-999.0,91,0.00,,,-99.99,,2013-07-05 05:33:00,
2013-07-04 22:43:00,65.0,62.0,29.83,South,170,2.0,-999.0,91,0.00,,,-99.99,,2013-07-05 05:43:00,
2013-07-04 22:52:00,65.0,62.0,29.83,South,170,2.0,-999.0,91,0.00,,,-99.99,,2013-07-05 05:52:00,
2013-07-04 23:34:00,65.0,63.0,29.84,North,0,0.0,-999.0,92,0.00,,,-99.99,,2013-07-05 06:34:00,
2013-07-04 23:43:00,65.0,63.0,29.84,North,0,0.0,-999.0,92,0.00,,,-99.99,,2013-07-05 06:43:00,
2013-07-04 23:52:00,65.0,63.0,29.84,North,0,0.0,-999.0,92,0.00,,,-99.99,,2013-07-05 06:52:00,
2013-07-04 23:53:00,65.0,63.0,29.83,East,100,1.0,-999.0,93,0.00,,,-99.99,,2013-07-05 06:53:00,